Nearby METAR Reports

 

KSJC - San Jose, California, USA
Distance from station: NE 14km
Updated: 20/04/2019 13:53
Mostly cloudy
Mostly cloudy
 Wind from NW
Wind: NW 30 km/h, Gust: 37 km/h
Temperature: 17°C
Dew Point: 9°C
Humidity: 59%
Barometer: 1016.3 hPa
Clouds: Mostly cloudy
Visibility: 16 km
Cloud details: Few Clouds 30 m
Partly cloudy 792 m
Mostly cloudy 975 m
2019/04/20 20:53 KSJC 202053Z 31016G20KT 10SM FEW001 SCT026 BKN032 17/09 A3001 RMK AO2 RAE1957 SLP161 P0000 60000 T01720094 53006 $
KNUQ - Moffett Nas/Mtn, California, USA
Distance from station: N 14km
Updated: 20/04/2019 13:56
Few Clouds
Few Clouds
 Wind from WNW
Wind: WNW 19 km/h, Gust: 35 km/h
Temperature: 17°C
Dew Point: 9°C
Humidity: 59%
Barometer: 1016.6 hPa
Clouds: Few Clouds
Visibility: 16 km
Cloud details: Few Clouds 853 m
Few Clouds 1158 m
2019/04/20 20:56 KNUQ 202056Z 30010G19KT 10SM FEW028 FEW038 17/09 A3002 RMK AO2 SLP168 T01670089 52006 $
 
KPAO - Palo Alto, California, USA
Distance from station: NNW 23km
Updated: 20/04/2019 13:47
Mostly cloudy
Mostly cloudy
 Wind from WNW
Wind: WNW 26 km/h
Temperature: 16°C
Dew Point: 8°C
Humidity: 59%
Barometer: 1016.3 hPa
Clouds: Mostly cloudy
Visibility: 16 km
Cloud details: Mostly cloudy 640 m
Mostly cloudy 1250 m
2019/04/20 20:47 KPAO 202047Z 30014KT 10SM BKN021 BKN041 16/08 A3001
KRHV - San Jose/Reid, California, USA
Distance from station: ENE 19km
Updated: 20/04/2019 13:47
Mostly cloudy
Mostly cloudy
 Wind from WNW
Wind: WNW 26 km/h, Gust: 39 km/h
Temperature: 17°C
Dew Point: 8°C
Humidity: 56%
Barometer: 1016.3 hPa
Clouds: Mostly cloudy
Visibility: 16 km
Cloud details: Mostly cloudy 914 m
2019/04/20 20:47 KRHV 202047Z 30014G21KT 10SM BKN030 17/08 A3001
 
KOAK - Oakland, California, USA
Distance from station: NNW 50km
Updated: 20/04/2019 13:53
Few Clouds
Few Clouds
 Wind from W
Wind: W 48 km/h, Gust: 54 km/h
Temperature: 16°C
Dew Point: 10°C
Humidity: 68%
Barometer: 1015.2 hPa
Clouds: Few Clouds
Visibility: 16 km
Cloud details: Few Clouds 366 m
2019/04/20 20:53 KOAK 202053Z 27026G29KT 10SM FEW012 16/10 A2998 RMK AO2 PK WND 27031/2052 SLP152 T01610100 51006
KSQL - San Carlos Airpo, California, USA
Distance from station: NW 34km
Updated: 20/04/2019 13:47
Mostly cloudy
Mostly cloudy
 Wind from W
Wind: W 26 km/h, Gust: 46 km/h
Temperature: 17°C
Dew Point: 8°C
Humidity: 56%
Barometer: 1016.3 hPa
Clouds: Mostly cloudy
Visibility: 16 km
Cloud details: Mostly cloudy 792 m
2019/04/20 20:47 KSQL 202047Z 26014G25KT 10SM BKN026 17/08 A3001
 
KSFO - San Francisco, California, USA
Distance from station: NW 49km
Updated: 20/04/2019 13:56
Mostly cloudy
Mostly cloudy
 Wind from W
Wind: W 31 km/h, Gust: 57 km/h
Temperature: 14°C
Dew Point: 8°C
Humidity: 67%
Barometer: 1015.6 hPa
Clouds: Mostly cloudy
Visibility: 14 km
Cloud details: Few Clouds 396 m
Mostly cloudy 579 m
Mostly cloudy 732 m
2019/04/20 20:56 KSFO 202056Z 28017G31KT 9SM FEW013 BKN019 BKN024 14/08 A2999 RMK AO2 PK WND 27031/2052 SLP155 T01440083 50003
KE16 - San Martin, California, USA
Distance from station: ESE 43km
Updated: 20/04/2019 14:10
Overcast
Overcast
 Wind from NW
Wind: NW 20 km/h, Gust: 37 km/h
Temperature: 17°C
Dew Point: 9°C
Humidity: 59%
Barometer: 1015.9 hPa
Clouds: Overcast
Visibility: 16 km
Cloud details: Mostly cloudy 1128 m
Overcast 1372 m
2019/04/20 21:10 KE16 202110Z AUTO 32011G20KT 10SM BKN037 OVC045 17/09 A3000 RMK AO2
 
KWVI - Watsonville, California, USA
Distance from station: SSE 44km
Updated: 20/04/2019 13:53
Clear
Clear
 Wind from WSW
Wind: WSW 26 km/h
Temperature: 18°C
Dew Point: 12°C
Humidity: 68%
Barometer: 1015.6 hPa
Clouds: Clear
Visibility: 16 km
2019/04/20 20:53 KWVI 202053Z AUTO 25014KT 10SM CLR 18/12 A2999 RMK AO2 SLP155 T01830117 58003
KHAF - Half Moon Bay, California, USA
Distance from station: WNW 50km
Updated: 20/04/2019 14:20
Haze, Few clouds
Haze, Few clouds
 Wind from NW
Wind: NW 26 km/h, Gust: 41 km/h
Temperature: 14°C
Dew Point: 10°C
Humidity: 77%
Barometer: 1016.9 hPa
Summary: Haze
Clouds: Few Clouds
Visibility: 8 km
Cloud details: Few Clouds 518 m
2019/04/20 21:20 KHAF 202120Z AUTO 31014G22KT 5SM HZ FEW017 14/10 A3003 RMK AO2
 
KHWD - Hayward, California, USA
Distance from station: N 44km
Updated: 20/04/2019 13:54
Partly cloudy
Partly cloudy
 Wind from W
Wind: W 31 km/h, Gust: 44 km/h
Temperature: 17°C
Dew Point: 9°C
Humidity: 59%
Barometer: 1015.6 hPa
Clouds: Partly cloudy
Visibility: 16 km
Cloud details: Partly cloudy 549 m
2019/04/20 20:54 KHWD 202054Z 27017G24KT 10SM SCT018 17/09 A2999 RMK AO2 PK WND 28027/2014 SLP164 T01670094 53002
KLVK - Livermore, California, USA
Distance from station: NNE 51km
Updated: 20/04/2019 13:53
Few Clouds
Few Clouds
 Wind from SW
Wind: SW 33 km/h, Gust: 50 km/h
Temperature: 17°C
Dew Point: 9°C
Humidity: 59%
Barometer: 1014.6 hPa
Clouds: Few Clouds
Visibility: 16 km
Cloud details: Few Clouds 762 m
2019/04/20 20:53 KLVK 202053Z 23018G27KT 10SM FEW025 17/09 A2996 RMK AO2 PK WND 23027/2008 SLP145 T01670089 51003